Time;durP1;ratioP1;P1;durP2;ratioP2;P2;SDS_P1;SDS_P2;PMS_P1;PMS_P2;Temp;Humidity;BMP_temperature;BMP_pressure;BME280_temperature;BME280_humidity;BME280_pressure;Samples;Min_cycle;Max_cycle;Signal;HPM_P1;HPM_P2
2021/07/10 00:01:12;;;;;;;1999.90;999.90;;;20.00;99.90;;;;;;5073675;28;20402;-81
2021/07/10 00:03:39;;;;;;;1999.90;999.90;;;20.00;99.90;;;;;;5073879;28;20449;-81
2021/07/10 00:06:08;;;;;;;1999.90;999.90;;;20.00;99.90;;;;;;5075270;28;20244;-81
2021/07/10 00:08:37;;;;;;;1999.90;999.90;;;19.90;99.90;;;;;;5076418;28;20914;-81
2021/07/10 00:11:05;;;;;;;1999.90;999.90;;;19.90;99.90;;;;;;5077813;28;20403;-81
2021/07/10 00:13:30;;;;;;;1999.90;999.90;;;19.90;99.90;;;;;;5077815;28;20414;-81
2021/07/10 00:16:00;;;;;;;1999.90;999.90;;;19.80;99.90;;;;;;5077331;28;20795;-81
2021/07/10 00:18:28;;;;;;;1999.90;999.90;;;19.80;99.90;;;;;;5077874;28;20517;-81
2021/07/10 00:20:59;;;;;;;1999.90;999.90;;;19.80;99.90;;;;;;5077493;28;20408;-81
2021/07/10 00:23:43;;;;;;;1999.90;999.90;;;19.80;99.90;;;;;;5077261;28;20449;-81
2021/07/10 00:26:11;;;;;;;1999.90;999.90;;;19.80;99.90;;;;;;5077508;28;20788;-81
2021/07/10 00:28:40;;;;;;;1999.90;999.90;;;19.70;99.90;;;;;;5077588;28;20413;-81
2021/07/10 00:31:15;;;;;;;1999.90;999.90;;;19.70;99.90;;;;;;5077512;28;20406;-81
2021/07/10 00:33:45;;;;;;;1999.90;999.90;;;19.60;99.90;;;;;;5059810;28;20416;-81
2021/07/10 00:36:40;;;;;;;1999.90;999.90;;;19.60;99.90;;;;;;5077856;28;20967;-82
2021/07/10 00:39:06;;;;;;;1999.90;999.90;;;19.50;99.90;;;;;;5058695;28;20502;-82
2021/07/10 00:41:37;;;;;;;1999.90;999.90;;;19.50;99.90;;;;;;5077858;28;20441;-81
2021/07/10 00:44:17;;;;;;;1999.90;999.90;;;19.50;99.90;;;;;;5077422;28;20184;-81
2021/07/10 00:46:45;;;;;;;1999.90;999.90;;;19.40;99.90;;;;;;5060192;28;20509;-81
2021/07/10 00:49:12;;;;;;;1999.90;999.90;;;19.40;99.90;;;;;;5077480;28;20436;-81
2021/07/10 00:51:38;;;;;;;1999.90;999.90;;;19.40;99.90;;;;;;5077368;28;20456;-82
2021/07/10 00:54:11;;;;;;;1999.90;999.90;;;19.30;99.90;;;;;;5077341;28;20407;-81
2021/07/10 00:56:47;;;;;;;1999.90;999.90;;;19.30;99.90;;;;;;5077290;28;20903;-81
2021/07/10 00:59:13;;;;;;;1999.90;999.90;;;19.30;99.90;;;;;;5058822;28;20418;-82
2021/07/10 01:01:55;;;;;;;1999.90;999.90;;;19.30;99.90;;;;;;5059128;28;20413;-81
2021/07/10 01:04:23;;;;;;;1999.90;999.90;;;19.20;99.90;;;;;;5077074;28;20468;-81
2021/07/10 01:07:17;;;;;;;1999.90;999.90;;;19.20;99.90;;;;;;5059414;28;20925;-81
2021/07/10 01:10:04;;;;;;;;;;;;;;;;;;;;;
2021/07/10 01:12:43;;;;;;;1999.90;999.90;;;19.20;99.90;;;;;;5077161;28;20400;-81
2021/07/10 01:15:14;;;;;;;1999.90;999.90;;;19.20;99.90;;;;;;5059496;28;20961;-81
2021/07/10 01:17:46;;;;;;;1999.90;999.90;;;19.10;99.90;;;;;;5075718;28;20382;-81
2021/07/10 01:20:22;;;;;;;1999.90;999.90;;;19.10;99.90;;;;;;5076848;28;20383;-81
2021/07/10 01:22:51;;;;;;;1999.90;999.90;;;19.10;99.90;;;;;;5076798;28;20438;-81
2021/07/10 01:25:27;;;;;;;1999.90;999.90;;;19.10;99.90;;;;;;5076088;28;20401;-81
2021/07/10 01:27:56;;;;;;;1999.90;999.90;;;19.10;99.90;;;;;;5076169;28;20370;-81
2021/07/10 01:30:33;;;;;;;1999.90;999.90;;;19.10;99.90;;;;;;5075200;28;20402;-81
2021/07/10 01:33:02;;;;;;;1999.90;999.90;;;19.10;99.90;;;;;;5058512;28;20893;-81
2021/07/10 01:35:40;;;;;;;1999.90;999.90;;;19.10;99.90;;;;;;5156628;22;20493;-84
2021/07/10 01:38:09;;;;;;;1999.90;999.90;;;19.00;99.90;;;;;;5059511;28;20414;-84
2021/07/10 01:40:36;;;;;;;1999.90;999.90;;;19.00;99.90;;;;;;5077761;28;20481;-84
2021/07/10 01:43:04;;;;;;;1999.90;999.90;;;19.00;99.90;;;;;;5077678;28;20434;-84
2021/07/10 01:45:34;;;;;;;1999.90;999.90;;;19.00;99.90;;;;;;5077435;28;20425;-84
2021/07/10 01:48:00;;;;;;;1999.90;999.90;;;18.90;99.90;;;;;;5077421;28;20420;-84
2021/07/10 01:50:26;;;;;;;1999.90;999.90;;;18.90;99.90;;;;;;5059406;28;20410;-84
2021/07/10 01:52:53;;;;;;;1999.90;999.90;;;18.90;99.90;;;;;;5078000;28;20411;-84
2021/07/10 01:55:19;;;;;;;1999.90;999.90;;;18.80;99.90;;;;;;5077284;28;20442;-84
2021/07/10 01:57:48;;;;;;;1999.90;999.90;;;18.80;99.90;;;;;;5059994;28;20762;-84
2021/07/10 02:00:19;;;;;;;1999.90;999.90;;;18.80;99.90;;;;;;5059967;28;20560;-84
2021/07/10 02:02:46;;;;;;;1999.90;999.90;;;18.70;99.90;;;;;;5076980;28;20386;-84
2021/07/10 02:05:12;;;;;;;1999.90;999.90;;;18.70;99.90;;;;;;5076975;28;20413;-84
2021/07/10 02:07:38;;;;;;;1999.90;999.90;;;18.70;99.90;;;;;;5076675;28;20390;-84
2021/07/10 02:10:09;;;;;;;1999.90;999.90;;;18.70;99.90;;;;;;5076708;28;20395;-84
2021/07/10 02:12:36;;;;;;;1999.90;999.90;;;18.70;99.90;;;;;;5076583;28;20480;-84
2021/07/10 02:15:03;;;;;;;1999.90;999.90;;;18.70;99.90;;;;;;5076605;28;20422;-84
2021/07/10 02:17:29;;;;;;;1999.90;999.90;;;18.70;99.90;;;;;;5076512;28;20971;-84
2021/07/10 02:19:55;;;;;;;1999.90;999.90;;;18.70;99.90;;;;;;5076775;28;20394;-84
2021/07/10 02:22:21;;;;;;;1999.90;999.90;;;18.70;99.90;;;;;;5076686;28;20160;-83
2021/07/10 02:24:46;;;;;;;1999.90;999.90;;;18.60;99.90;;;;;;5076953;28;20184;-83
2021/07/10 02:27:12;;;;;;;1999.90;999.90;;;18.60;99.90;;;;;;5076592;28;20183;-83
2021/07/10 02:29:38;;;;;;;1999.90;999.90;;;18.50;99.90;;;;;;5075146;28;20193;-84
2021/07/10 02:32:04;;;;;;;1999.90;999.90;;;18.50;99.90;;;;;;5076555;28;20164;-84
2021/07/10 02:34:30;;;;;;;1999.90;999.90;;;18.40;99.90;;;;;;5076658;28;20217;-84
2021/07/10 02:36:56;;;;;;;1999.90;999.90;;;18.40;99.90;;;;;;5059060;28;20449;-84
2021/07/10 02:39:21;;;;;;;1999.90;999.90;;;18.40;99.90;;;;;;5076236;28;20164;-84
2021/07/10 02:41:47;;;;;;;1999.90;999.90;;;18.40;99.90;;;;;;5076272;28;20175;-84
2021/07/10 02:44:14;;;;;;;1999.90;999.90;;;18.40;99.90;;;;;;5076000;28;20184;-84
2021/07/10 02:46:40;;;;;;;1999.90;999.90;;;18.40;99.90;;;;;;5057825;28;20188;-84
2021/07/10 02:49:05;;;;;;;1999.90;999.90;;;18.40;99.90;;;;;;5076411;28;20460;-84
2021/07/10 02:51:31;;;;;;;1999.90;999.90;;;18.30;99.90;;;;;;5076993;28;20406;-84
2021/07/10 02:53:57;;;;;;;1999.90;999.90;;;18.30;99.90;;;;;;5076754;28;20221;-84
2021/07/10 02:56:24;;;;;;;1999.90;999.90;;;18.30;99.90;;;;;;5075912;28;20184;-84
2021/07/10 02:58:50;;;;;;;1999.90;999.90;;;18.20;99.90;;;;;;5058482;28;20689;-84
2021/07/10 03:01:16;;;;;;;1999.90;999.90;;;18.20;99.90;;;;;;5076078;28;20406;-84
2021/07/10 03:03:42;;;;;;;1999.90;999.90;;;18.20;99.90;;;;;;5076214;28;20433;-83
2021/07/10 03:06:08;;;;;;;1999.90;999.90;;;18.10;99.90;;;;;;5074558;28;20975;-83
2021/07/10 03:08:34;;;;;;;1999.90;999.90;;;18.10;99.90;;;;;;5076061;28;20676;-84
2021/07/10 03:11:00;;;;;;;1999.90;999.90;;;18.10;99.90;;;;;;5058181;28;20406;-84
2021/07/10 03:13:26;;;;;;;1999.90;999.90;;;18.10;99.90;;;;;;5075990;28;20175;-84
2021/07/10 03:15:52;;;;;;;1999.90;999.90;;;18.10;99.90;;;;;;5058303;28;20562;-84
2021/07/10 03:18:20;;;;;;;1999.90;999.90;;;18.10;99.90;;;;;;5075797;28;20398;-84
2021/07/10 03:20:46;;;;;;;1999.90;999.90;;;18.00;99.90;;;;;;5076170;28;20408;-84
2021/07/10 03:23:12;;;;;;;1999.90;999.90;;;18.00;99.90;;;;;;5076089;28;20438;-83
2021/07/10 03:25:38;;;;;;;1999.90;999.90;;;18.00;99.90;;;;;;5058421;28;20430;-84
2021/07/10 03:28:04;;;;;;;1999.90;999.90;;;18.00;99.90;;;;;;5076189;28;20402;-84
2021/07/10 03:30:30;;;;;;;1999.90;999.90;;;18.00;99.90;;;;;;5076206;28;20399;-84
2021/07/10 03:32:56;;;;;;;1999.90;999.90;;;18.00;99.90;;;;;;5075684;28;20413;-84
2021/07/10 03:35:22;;;;;;;1999.90;999.90;;;18.00;99.90;;;;;;5075844;28;20414;-84
2021/07/10 03:37:49;;;;;;;1999.90;999.90;;;17.90;99.90;;;;;;5075895;28;20246;-84
2021/07/10 03:40:22;;;;;;;1999.90;999.90;;;18.00;99.90;;;;;;5074920;28;20410;-84
2021/07/10 03:42:48;;;;;;;1999.90;999.90;;;18.00;99.90;;;;;;5076091;28;20765;-84
2021/07/10 03:45:15;;;;;;;1999.90;999.90;;;18.00;99.90;;;;;;5075787;28;20415;-84
2021/07/10 03:47:41;;;;;;;1999.90;999.90;;;18.00;99.90;;;;;;5057265;28;20415;-84
2021/07/10 03:50:09;;;;;;;1999.90;999.90;;;18.00;99.90;;;;;;5075743;28;20766;-84
2021/07/10 03:52:35;;;;;;;1999.90;999.90;;;18.00;99.90;;;;;;5058035;28;20249;-84
2021/07/10 03:55:02;;;;;;;1999.90;999.90;;;18.00;99.90;;;;;;5075650;28;20394;-84
2021/07/10 03:57:28;;;;;;;1999.90;999.90;;;18.00;99.90;;;;;;5076253;28;20176;-84
2021/07/10 03:59:54;;;;;;;1999.90;999.90;;;18.00;99.90;;;;;;5076134;28;20405;-84
2021/07/10 04:02:20;;;;;;;1999.90;999.90;;;17.90;99.90;;;;;;5075918;28;20174;-84
2021/07/10 04:04:45;;;;;;;1999.90;999.90;;;17.90;99.90;;;;;;5075942;28;20187;-84
2021/07/10 04:07:11;;;;;;;1999.90;999.90;;;18.00;99.90;;;;;;5075599;28;20237;-84
2021/07/10 04:09:37;;;;;;;1999.90;999.90;;;18.00;99.90;;;;;;5075585;28;20187;-84
2021/07/10 04:12:03;;;;;;;1999.90;999.90;;;17.90;99.90;;;;;;5075254;28;20182;-84
2021/07/10 04:14:30;;;;;;;1999.90;999.90;;;18.00;99.90;;;;;;5057551;28;20200;-84
2021/07/10 04:16:56;;;;;;;1999.90;999.90;;;18.00;99.90;;;;;;5076015;28;20429;-84
2021/07/10 04:19:21;;;;;;;1999.90;999.90;;;18.00;99.90;;;;;;5075263;28;20406;-84
2021/07/10 04:21:49;;;;;;;1999.90;999.90;;;18.00;99.90;;;;;;5073890;28;20195;-84
2021/07/10 04:24:16;;;;;;;1999.90;999.90;;;18.00;99.90;;;;;;5075250;28;20192;-83
2021/07/10 04:26:42;;;;;;;1999.90;999.90;;;18.00;99.90;;;;;;5075086;28;20773;-84
2021/07/10 04:29:07;;;;;;;1999.90;999.90;;;18.00;99.90;;;;;;5073485;28;20421;-84
2021/07/10 04:31:33;;;;;;;1999.90;999.90;;;18.00;99.90;;;;;;5075575;28;20164;-84
2021/07/10 04:33:59;;;;;;;1999.90;999.90;;;18.00;99.90;;;;;;5075145;28;20627;-84
2021/07/10 04:36:25;;;;;;;1999.90;999.90;;;18.10;99.90;;;;;;5075180;28;20430;-84
2021/07/10 04:38:50;;;;;;;1999.90;999.90;;;18.10;99.90;;;;;;5075763;28;20172;-84
2021/07/10 04:41:16;;;;;;;1999.90;999.90;;;18.10;99.90;;;;;;5075808;28;20156;-84
2021/07/10 04:43:42;;;;;;;1999.90;999.90;;;18.20;99.90;;;;;;5074217;28;20188;-85
2021/07/10 04:46:09;;;;;;;1999.90;999.90;;;18.20;99.90;;;;;;5075455;28;20180;-85
2021/07/10 04:48:35;;;;;;;1999.90;999.90;;;18.30;99.90;;;;;;5075044;28;20164;-84
2021/07/10 04:51:01;;;;;;;1999.90;999.90;;;18.30;99.90;;;;;;5075695;28;20428;-84
2021/07/10 04:53:27;;;;;;;1999.90;999.90;;;18.50;99.90;;;;;;5079039;28;20406;-85
2021/07/10 04:55:53;;;;;;;1999.90;999.90;;;18.50;99.90;;;;;;5078968;28;20426;-84
2021/07/10 04:58:18;;;;;;;1999.90;999.90;;;18.60;99.90;;;;;;5077587;28;20415;-85
2021/07/10 05:00:44;;;;;;;1999.90;999.90;;;18.70;99.90;;;;;;5078583;28;20164;-84
2021/07/10 05:03:11;;;;;;;1999.90;999.90;;;18.80;99.90;;;;;;5078917;28;20176;-84
2021/07/10 05:05:37;;;;;;;1999.90;999.90;;;18.90;99.90;;;;;;5077526;28;20458;-85
2021/07/10 05:08:03;;;;;;;1999.90;999.90;;;19.00;99.90;;;;;;5078717;28;20394;-84
2021/07/10 05:10:29;;;;;;;1999.90;999.90;;;19.10;99.90;;;;;;5078374;28;20402;-84
2021/07/10 05:12:55;;;;;;;1999.90;999.90;;;19.10;99.90;;;;;;5078168;28;20410;-84
2021/07/10 05:15:21;;;;;;;1999.90;999.90;;;19.00;99.90;;;;;;5076990;28;20164;-84
2021/07/10 05:17:46;;;;;;;1999.90;999.90;;;19.00;99.90;;;;;;5078725;28;20164;-84
2021/07/10 05:20:13;;;;;;;1999.90;999.90;;;19.00;99.90;;;;;;5076898;28;20165;-84
2021/07/10 05:22:39;;;;;;;1999.90;999.90;;;19.00;99.90;;;;;;5077943;28;20160;-83
2021/07/10 05:25:06;;;;;;;1999.90;999.90;;;19.00;99.90;;;;;;5078153;28;20410;-84
2021/07/10 05:27:32;;;;;;;1999.90;999.90;;;19.00;99.90;;;;;;5078691;28;20769;-84
2021/07/10 05:29:58;;;;;;;1999.90;999.90;;;18.80;99.90;;;;;;5078053;28;20398;-84
2021/07/10 05:32:24;;;;;;;1999.90;999.90;;;18.70;99.90;;;;;;5078608;28;20679;-83
2021/07/10 05:34:49;;;;;;;1999.90;999.90;;;18.60;99.90;;;;;;5077464;28;20594;-84
2021/07/10 05:37:15;;;;;;;1999.90;999.90;;;18.60;99.90;;;;;;5078649;28;20190;-84
2021/07/10 05:39:42;;;;;;;1999.90;999.90;;;18.60;99.90;;;;;;5077773;28;20164;-84
2021/07/10 05:42:09;;;;;;;1999.90;999.90;;;18.60;99.90;;;;;;5077904;28;20198;-84
2021/07/10 05:44:35;;;;;;;1999.90;999.90;;;18.60;99.90;;;;;;5059913;28;20442;-84
2021/07/10 05:47:01;;;;;;;1999.90;999.90;;;18.70;99.90;;;;;;5078221;28;20759;-84
2021/07/10 05:49:27;;;;;;;1999.90;999.90;;;18.70;99.90;;;;;;5077623;28;20398;-84
2021/07/10 05:51:53;;;;;;;1999.90;999.90;;;18.70;99.90;;;;;;5076578;28;20168;-84
2021/07/10 05:54:18;;;;;;;1999.90;999.90;;;18.80;99.90;;;;;;5077566;28;20402;-84
2021/07/10 05:56:44;;;;;;;1999.90;999.90;;;18.80;99.90;;;;;;5075956;28;20434;-84
2021/07/10 05:59:10;;;;;;;1999.90;999.90;;;18.80;99.90;;;;;;5077717;28;20175;-84
2021/07/10 06:01:36;;;;;;;1999.90;999.90;;;18.80;99.90;;;;;;5077745;28;20761;-84
2021/07/10 06:04:01;;;;;;;1999.90;999.90;;;18.90;99.90;;;;;;5075208;28;20207;-84
2021/07/10 06:06:30;;;;;;;1999.90;999.90;;;18.90;99.90;;;;;;5076947;28;20187;-84
2021/07/10 06:08:56;;;;;;;1999.90;999.90;;;19.00;99.90;;;;;;5077551;28;20157;-84
2021/07/10 06:11:22;;;;;;;1999.90;999.90;;;19.00;99.90;;;;;;5075810;28;20485;-84
2021/07/10 06:13:47;;;;;;;1999.90;999.90;;;19.00;99.90;;;;;;5077567;28;20165;-83
2021/07/10 06:16:15;;;;;;;1999.90;999.90;;;19.10;99.90;;;;;;5077135;28;20211;-84
2021/07/10 06:18:41;;;;;;;1999.90;999.90;;;19.20;99.90;;;;;;5076790;28;20167;-84
2021/07/10 06:21:06;;;;;;;1999.90;999.90;;;19.30;99.90;;;;;;5077195;28;20402;-83
2021/07/10 06:23:32;;;;;;;1999.90;999.90;;;19.40;99.90;;;;;;5077330;28;20551;-84
2021/07/10 06:25:58;;;;;;;1999.90;999.90;;;19.40;99.90;;;;;;5077112;28;20176;-83
2021/07/10 06:28:24;;;;;;;1999.90;999.90;;;19.50;99.90;;;;;;5076003;28;20635;-84
2021/07/10 06:30:50;;;;;;;1999.90;999.90;;;19.50;99.90;;;;;;5077395;28;20164;-84
2021/07/10 06:33:16;;;;;;;1999.90;999.90;;;19.60;99.90;;;;;;5077168;28;20405;-84
2021/07/10 06:35:41;;;;;;;1999.90;999.90;;;19.50;99.90;;;;;;5076923;28;20200;-84
2021/07/10 06:38:07;;;;;;;1999.90;999.90;;;19.60;99.90;;;;;;5076849;28;20173;-84
2021/07/10 06:40:36;;;;;;;1999.90;999.90;;;19.60;99.90;;;;;;5077075;28;20193;-84
2021/07/10 06:43:01;;;;;;;1999.90;999.90;;;19.60;99.90;;;;;;5077049;28;20180;-84
2021/07/10 06:45:27;;;;;;;1999.90;999.90;;;19.50;99.90;;;;;;5077603;28;20425;-84
2021/07/10 06:47:55;;;;;;;1999.90;999.90;;;19.60;99.90;;;;;;5059840;28;20429;-84
2021/07/10 06:50:24;;;;;;;1999.90;999.90;;;19.60;99.90;;;;;;5077599;28;20243;-84
2021/07/10 06:52:50;;;;;;;1999.90;999.90;;;19.70;99.90;;;;;;5076846;28;20444;-84
2021/07/10 06:55:16;;;;;;;1999.90;999.90;;;19.70;99.90;;;;;;5075913;28;20456;-84
2021/07/10 06:57:42;;;;;;;1999.90;999.90;;;19.80;99.90;;;;;;5075457;28;20226;-84
2021/07/10 07:00:11;;;;;;;1999.90;999.90;;;19.80;99.90;;;;;;5076730;28;20486;-83
2021/07/10 07:02:36;;;;;;;1999.90;999.90;;;19.80;99.90;;;;;;5058689;28;20663;-83
2021/07/10 07:05:03;;;;;;;1999.90;999.90;;;19.80;99.90;;;;;;5058271;28;20445;-83
2021/07/10 07:07:29;;;;;;;1999.90;999.90;;;19.90;99.90;;;;;;5076382;28;20263;-83
2021/07/10 07:09:55;;;;;;;1999.90;999.90;;;20.10;99.90;;;;;;5075589;28;20947;-84
2021/07/10 07:12:20;;;;;;;1999.90;999.90;;;20.30;99.90;;;;;;5076575;28;20244;-84
2021/07/10 07:14:46;;;;;;;1999.90;999.90;;;20.40;99.90;;;;;;5076145;28;20179;-84
2021/07/10 07:17:11;;;;;;;1999.90;999.90;;;20.50;99.90;;;;;;5075393;28;20185;-84
2021/07/10 07:19:37;;;;;;;1999.90;999.90;;;20.50;99.90;;;;;;5075948;28;20231;-83
2021/07/10 07:22:03;;;;;;;1999.90;999.90;;;20.60;99.90;;;;;;5076054;28;20207;-84
2021/07/10 07:24:29;;;;;;;1999.90;999.90;;;20.70;99.90;;;;;;5075903;28;20522;-84
2021/07/10 07:26:55;;;;;;;1999.90;999.90;;;20.80;99.90;;;;;;5076316;28;20481;-84
2021/07/10 07:29:20;;;;;;;1999.90;999.90;;;20.80;99.90;;;;;;5075832;28;20202;-84
2021/07/10 07:31:46;;;;;;;1999.90;999.90;;;20.90;99.90;;;;;;5075318;28;20235;-83
2021/07/10 07:34:18;;;;;;;1999.90;999.90;;;21.10;99.90;;;;;;5151649;22;20177;-83
2021/07/10 07:36:43;;;;;;;1999.90;999.90;;;21.20;99.90;;;;;;5094406;28;20453;-83
2021/07/10 07:39:11;;;;;;;1999.90;999.90;;;21.30;99.90;;;;;;5094420;28;20419;-81
2021/07/10 07:41:40;;;;;;;1999.90;999.90;;;21.30;99.90;;;;;;5076225;28;20648;-81
2021/07/10 07:44:08;;;;;;;1999.90;999.90;;;21.40;99.90;;;;;;5094092;28;20452;-81
2021/07/10 07:46:41;;;;;;;1999.90;999.90;;;21.40;99.90;;;;;;5093291;28;20948;-81
2021/07/10 07:49:09;;;;;;;1999.90;999.90;;;21.50;99.90;;;;;;5094294;28;20386;-80
2021/07/10 07:51:38;;;;;;;1999.90;999.90;;;21.60;99.90;;;;;;5095307;28;20402;-81
2021/07/10 07:54:04;;;;;;;1999.90;999.90;;;21.50;99.90;;;;;;5094318;28;20408;-80
2021/07/10 07:56:32;;;;;;;1999.90;999.90;;;21.60;99.90;;;;;;5094285;28;20426;-81
2021/07/10 07:59:04;;;;;;;1999.90;999.90;;;21.60;99.90;;;;;;5093340;28;20634;-81
2021/07/10 08:01:33;;;;;;;1999.90;999.90;;;21.60;99.90;;;;;;5094269;28;20393;-80
2021/07/10 08:03:58;;;;;;;1999.90;999.90;;;21.60;99.90;;;;;;5076322;28;20456;-81
2021/07/10 08:06:33;;;;;;;1999.90;999.90;;;21.60;99.90;;;;;;5093290;28;20437;-81
2021/07/10 08:09:19;;;;;;;1999.90;999.90;;;21.60;99.90;;;;;;5094526;28;20739;-81
2021/07/10 08:11:48;;;;;;;1999.90;999.90;;;21.70;99.90;;;;;;5076536;28;20397;-81
2021/07/10 08:14:14;;;;;;;1999.90;999.90;;;21.90;99.90;;;;;;5093847;28;20813;-81
2021/07/10 08:16:55;;;;;;;1999.90;999.90;;;22.00;99.90;;;;;;5094262;28;20496;-80
2021/07/10 08:19:21;;;;;;;1999.90;999.90;;;21.90;99.90;;;;;;5076453;28;20659;-80
2021/07/10 08:21:50;;;;;;;1999.90;999.90;;;21.80;99.90;;;;;;5094240;28;20405;-80
2021/07/10 08:24:25;;;;;;;1999.90;999.90;;;21.90;99.90;;;;;;5092803;28;20536;-81
2021/07/10 08:26:51;;;;;;;1999.90;999.90;;;21.90;99.90;;;;;;5093847;28;20433;-80
2021/07/10 08:29:17;;;;;;;1999.90;999.90;;;22.10;99.90;;;;;;5098466;28;20918;-81
2021/07/10 08:31:46;;;;;;;1999.90;999.90;;;22.10;99.90;;;;;;5098486;28;20638;-80
2021/07/10 08:34:12;;;;;;;1999.90;999.90;;;22.10;99.90;;;;;;5098113;28;20202;-80
2021/07/10 08:36:38;;;;;;;1999.90;999.90;;;22.20;99.90;;;;;;5097877;28;20485;-81
2021/07/10 08:39:07;;;;;;;1999.90;999.90;;;22.30;99.90;;;;;;5098128;28;20484;-81
2021/07/10 08:41:41;;;;;;;1999.90;999.90;;;22.40;99.90;;;;;;5097827;28;20493;-81
2021/07/10 08:44:07;;;;;;;1999.90;999.90;;;22.40;99.90;;;;;;5098179;28;20429;-80
2021/07/10 08:46:33;;;;;;;1999.90;999.90;;;22.20;99.90;;;;;;5095645;28;20498;-81
2021/07/10 08:48:58;;;;;;;1999.90;999.90;;;22.20;99.90;;;;;;5097475;28;20569;-81
2021/07/10 08:51:24;;;;;;;1999.90;999.90;;;22.40;99.90;;;;;;5098180;28;20159;-81
2021/07/10 08:53:50;;;;;;;1999.90;999.90;;;22.30;99.90;;;;;;5097683;28;20707;-81
2021/07/10 08:56:15;;;;;;;1999.90;999.90;;;22.40;99.90;;;;;;5095817;28;20271;-81
2021/07/10 08:58:41;;;;;;;1999.90;999.90;;;22.60;99.90;;;;;;5097286;28;20638;-81
2021/07/10 09:01:09;;;;;;;1999.90;999.90;;;22.70;99.90;;;;;;5097387;28;20192;-81
2021/07/10 09:03:35;;;;;;;1999.90;999.90;;;22.80;99.90;;;;;;5097265;28;20449;-81
2021/07/10 09:06:00;;;;;;;1999.90;999.90;;;23.00;99.90;;;;;;5097134;28;20985;-81
2021/07/10 09:08:32;;;;;;;1999.90;999.90;;;23.20;99.90;;;;;;5097810;28;20190;-81
2021/07/10 09:10:59;;;;;;;1999.90;999.90;;;23.10;99.90;;;;;;5097112;28;20744;-81
2021/07/10 09:13:42;;;;;;;1999.90;999.90;;;23.10;99.90;;;;;;5097224;28;20440;-81
2021/07/10 09:16:35;;;;;;;1999.90;999.90;;;23.30;99.90;;;;;;5078903;28;20448;-81
2021/07/10 09:19:07;;;;;;;1999.90;999.90;;;23.10;99.90;;;;;;5078382;28;20421;-80
2021/07/10 09:21:44;;;;;;;1999.90;999.90;;;23.30;99.90;;;;;;5078584;28;20420;-81
2021/07/10 09:24:17;;;;;;;1999.90;999.90;;;23.30;99.90;;;;;;5097111;28;20441;-81
2021/07/10 09:26:46;;;;;;;1999.90;999.90;;;23.30;99.90;;;;;;5095548;28;20433;-81
2021/07/10 09:29:16;;;;;;;1999.90;999.90;;;23.40;99.90;;;;;;5078768;28;20405;-81
2021/07/10 09:31:57;;;;;;;1999.90;999.90;;;23.50;99.90;;;;;;5079006;28;20760;-81
2021/07/10 09:34:32;;;;;;;1999.90;999.90;;;23.50;99.90;;;;;;5079066;28;20443;-80
2021/07/10 09:37:01;;;;;;;1999.90;999.90;;;23.60;99.90;;;;;;5078521;28;20466;-81
2021/07/10 09:39:30;;;;;;;1999.90;999.90;;;23.70;99.90;;;;;;5077363;28;20424;-81
2021/07/10 09:41:56;;;;;;;1999.90;999.90;;;23.70;99.90;;;;;;5096566;28;20408;-81
2021/07/10 09:44:25;;;;;;;1999.90;999.90;;;23.80;99.90;;;;;;5096206;28;20502;-81
2021/07/10 09:46:51;;;;;;;1999.90;999.90;;;24.00;99.90;;;;;;5096114;28;20452;-80
2021/07/10 09:49:29;;;;;;;1999.90;999.90;;;24.00;99.90;;;;;;5096287;28;20488;-81
2021/07/10 09:52:04;;;;;;;1999.90;999.90;;;23.80;99.90;;;;;;5096637;28;20389;-81
2021/07/10 09:54:36;;;;;;;1999.90;999.90;;;23.90;99.90;;;;;;5096215;28;20385;-81
2021/07/10 09:57:25;;;;;;;1999.90;999.90;;;23.80;99.90;;;;;;5095859;28;20425;-80
2021/07/10 09:59:56;;;;;;;1999.90;999.90;;;23.80;99.90;;;;;;5096313;28;20401;-80
2021/07/10 10:02:28;;;;;;;1999.90;999.90;;;23.90;99.90;;;;;;5061536;28;20410;-80
2021/07/10 10:05:07;;;;;;;1999.90;999.90;;;24.00;99.90;;;;;;5096276;28;20440;-80
2021/07/10 10:07:56;;;;;;;1999.90;999.90;;;24.00;99.90;;;;;;5078577;28;20474;-80
2021/07/10 10:10:27;;;;;;;1999.90;999.90;;;24.00;99.90;;;;;;5096752;28;20386;-81
2021/07/10 10:13:07;;;;;;;1999.90;999.90;;;24.10;99.80;;;;;;5096687;28;20769;-81
2021/07/10 10:15:49;;;;;;;1999.90;999.90;;;24.40;98.30;;;;;;5095723;28;20796;-81
2021/07/10 10:18:22;;;;;;;1999.90;999.90;;;24.70;99.90;;;;;;5096087;28;20390;-81
2021/07/10 10:20:52;;;;;;;1999.90;999.90;;;24.70;99.60;;;;;;5095960;28;20394;-80
2021/07/10 10:23:20;;;;;;;1999.90;999.90;;;24.40;97.40;;;;;;5077933;28;20445;-81
2021/07/10 10:25:47;;;;;;;1999.90;999.90;;;24.40;99.40;;;;;;5077611;28;20460;-80
2021/07/10 10:28:20;;;;;;;1999.90;999.90;;;24.40;99.30;;;;;;5095658;28;20407;-80
2021/07/10 10:30:51;;;;;;;1999.90;999.90;;;24.50;99.90;;;;;;5077916;28;20400;-81
2021/07/10 10:33:17;;;;;;;1999.90;999.90;;;24.60;96.20;;;;;;5096236;28;20394;-81
2021/07/10 10:35:44;;;;;;;1999.90;999.90;;;24.90;98.70;;;;;;5077374;28;20992;-81
2021/07/10 10:38:10;;;;;;;1999.90;999.90;;;25.20;97.50;;;;;;5094766;28;20238;-80
2021/07/10 10:40:36;;;;;;;1999.90;999.90;;;25.40;95.00;;;;;;5095769;28;20413;-81
2021/07/10 10:43:03;;;;;;;1999.90;999.90;;;25.20;90.80;;;;;;5077692;28;20441;-81
2021/07/10 10:45:33;;;;;;;1999.90;999.90;;;25.50;80.40;;;;;;5077751;28;20856;-81
2021/07/10 10:47:59;;;;;;;1999.90;999.90;;;25.80;73.40;;;;;;5095614;28;20463;-81
2021/07/10 10:50:29;;;;;;;1999.90;999.90;;;25.90;80.70;;;;;;5095520;28;20407;-80
2021/07/10 10:52:56;;;;;;;1999.90;999.90;;;26.20;89.40;;;;;;5095872;28;20404;-81
2021/07/10 10:55:31;;;;;;;1999.90;999.90;;;26.50;68.00;;;;;;5095631;28;20971;-80
2021/07/10 10:58:18;;;;;;;1999.90;999.90;;;26.70;74.00;;;;;;5095199;28;20404;-81
2021/07/10 11:00:47;;;;;;;1999.90;999.90;;;26.90;56.90;;;;;;5093785;28;20400;-80
2021/07/10 11:03:14;;;;;;;1999.90;999.90;;;26.70;31.50;;;;;;5094964;28;20871;-81
2021/07/10 11:05:41;;;;;;;1999.90;999.90;;;26.40;30.60;;;;;;5094790;28;20438;-80
2021/07/10 11:08:20;;;;;;;1999.90;999.90;;;26.30;32.50;;;;;;5095402;28;20408;-80
2021/07/10 11:10:46;;;;;;;1999.90;999.90;;;26.00;33.20;;;;;;5095271;28;20404;-80
2021/07/10 11:13:27;;;;;;;1999.90;999.90;;;25.70;39.80;;;;;;5094983;28;20405;-80
2021/07/10 11:16:14;;;;;;;1999.90;999.90;;;25.60;35.20;;;;;;5093151;28;20934;-80
2021/07/10 11:18:55;;;;;;;1999.90;999.90;;;25.30;24.90;;;;;;5093694;28;20459;-80
2021/07/10 11:21:41;;;;;;;1999.90;999.90;;;25.60;32.70;;;;;;5093399;28;20447;-81
2021/07/10 11:24:22;;;;;;;1999.90;999.90;;;25.90;68.20;;;;;;5094270;28;20451;-80
2021/07/10 11:26:54;;;;;;;1999.90;999.90;;;26.30;43.60;;;;;;5094586;28;20425;-80
2021/07/10 11:29:24;;;;;;;1999.90;999.90;;;26.60;37.00;;;;;;5093237;28;20419;-81
2021/07/10 11:31:53;;;;;;;1999.90;999.90;;;26.60;28.40;;;;;;5094683;28;20825;-80
2021/07/10 11:34:20;;;;;;;1999.90;999.90;;;27.00;24.10;;;;;;5075629;28;20432;-80
2021/07/10 11:36:55;;;;;;;1999.90;999.90;;;27.10;21.20;;;;;;5094666;28;20916;-80
2021/07/10 11:39:23;;;;;;;1999.90;999.90;;;27.40;21.60;;;;;;5095487;28;20384;-80
2021/07/10 11:41:57;;;;;;;1999.90;999.90;;;27.20;12.10;;;;;;5094851;28;20409;-80
2021/07/10 11:44:42;;;;;;;1999.90;999.90;;;27.30;12.60;;;;;;5094898;28;20996;-80
2021/07/10 11:47:08;;;;;;;1999.90;999.90;;;27.20;19.40;;;;;;5094412;28;20436;-80
2021/07/10 11:49:39;;;;;;;1999.90;999.90;;;27.10;21.70;;;;;;5095309;28;20451;-80
2021/07/10 11:52:19;;;;;;;1999.90;999.90;;;26.80;13.90;;;;;;5094399;28;20961;-80
2021/07/10 11:54:46;;;;;;;1999.90;999.90;;;26.70;18.70;;;;;;5094472;28;20849;-80
2021/07/10 11:57:13;;;;;;;1999.90;999.90;;;26.70;21.20;;;;;;5093217;28;20516;-80
2021/07/10 11:59:40;;;;;;;1999.90;999.90;;;26.60;18.80;;;;;;5094609;28;20409;-80
2021/07/10 12:02:16;;;;;;;1999.90;999.90;;;26.40;27.80;;;;;;5095820;28;20447;-80
2021/07/10 12:04:58;;;;;;;1999.90;999.90;;;26.20;24.40;;;;;;5098254;28;20808;-80
2021/07/10 12:07:23;;;;;;;1999.90;999.90;;;25.80;27.40;;;;;;5098365;28;20456;-80
2021/07/10 12:09:56;;;;;;;1999.90;999.90;;;25.90;30.30;;;;;;5096985;28;20432;-80